首页
METAR-TAF:

METAR-TAF

机场 :

丹佛國際機場

丹佛, 科羅拉多州, 美国

纬度: 39-49-58N, 经度: 104-39-27W, 海拔: 1655米

当前天气观测

该预报发布于12分钟前的03:53 UTC
风速7节,风向北转东北
温度 17°C
湿度 59%
气压 1016 hPa
能見度: 16.1公里
少量云层高于14000英尺
散云层高于22000英尺

METAR: KDEN 230353Z 02007KT 10SM FEW140 SCT220 17/09 A2999 RMK AO2 SLP081 T01720089

时间: 22:05 (04:05 UTC)

预报

该预报发布于1小时和2分钟前的03:03 UTC
预报有效从23日的 03点(UTC)到 24日的 06点(UTC)
风速8节,风向
能見度: 10公里
少量云层高于10000英尺
散云层高于15000英尺
从 23日的 0400点(UTC)
风速14节,风向东北,有时为20节阵风
能見度: 10公里
少量云层高于10000英尺
散云层高于15000英尺
从 23日的 0500点(UTC)
风速9节,风向东转东南
能見度: 10公里
少量云层高于15000英尺
从 23日的 0700点(UTC)
风速10节,风向南转西南
能見度: 10公里
少量云层高于15000英尺
从 23日的 1600点(UTC)
风速5节,风向多变
能見度: 10公里
少量云层高于14000英尺
散云层高于20000英尺
从 23日的 1900点(UTC)
风速6节,风向东转东北
能見度: 10公里
少量云层高于10000英尺
散云层高于17000英尺
从 23日的 2300点(UTC)
风速9节,风向东南
能見度: 10公里
散云层高于10000英尺
多云层高于15000英尺
从 24日的 0400点(UTC)
风速15节,风向北转东北,有时为25节阵风
能見度: 10公里
少量云层高于6000英尺
多云层高于9000英尺

TAF: KDEN 230303Z 2303/2406 08008KT P6SM FEW100 SCT150 FM230400 04014G20KT P6SM FEW100 SCT150 FM230500 12009KT P6SM FEW150 FM230700 21010KT P6SM FEW150 FM231600 VRB05KT P6SM FEW140 SCT200 FM231900 07006KT P6SM FEW100 SCT170 FM232300 13009KT P6SM SCT100 BKN150 FM240400 02015G25KT P6SM FEW060 BKN090

超过4000个机场的气象观测和天气预报(METAR&TAF报告)。

可查询的气象台以黄色和红色小点在地图上表示。

将鼠标移到小点上方,可查看气象台名称。

然后点击查看天气观测和预报。

如需切换地图:点击带黑十字的绿色按钮放大地图;点击带横线的绿色按钮缩小地图;或者点击绿色箭头查看邻近地区的地图。


METAR-TAF: